sensor_id;sensor_type;location;lat;lon;timestamp;P1;durP1;ratioP1;P2;durP2;ratioP2
75499;SDS011;64076;51.466;7.260;2023-02-28T00:00:50;5.07;;;3.17;;
75499;SDS011;64076;51.466;7.260;2023-02-28T00:03:16;5.77;;;3.70;;
75499;SDS011;64076;51.466;7.260;2023-02-28T00:05:41;4.90;;;3.22;;
75499;SDS011;64076;51.466;7.260;2023-02-28T00:08:07;4.10;;;3.07;;
75499;SDS011;64076;51.466;7.260;2023-02-28T00:10:33;4.65;;;3.38;;
75499;SDS011;64076;51.466;7.260;2023-02-28T00:13:00;4.18;;;2.92;;
75499;SDS011;64076;51.466;7.260;2023-02-28T00:15:27;5.03;;;3.40;;
75499;SDS011;64076;51.466;7.260;2023-02-28T00:17:53;4.90;;;3.25;;
75499;SDS011;64076;51.466;7.260;2023-02-28T00:20:19;5.05;;;3.33;;
75499;SDS011;64076;51.466;7.260;2023-02-28T00:22:47;5.20;;;3.30;;
75499;SDS011;64076;51.466;7.260;2023-02-28T00:25:15;6.78;;;3.20;;
75499;SDS011;64076;51.466;7.260;2023-02-28T00:27:42;5.73;;;2.90;;
75499;SDS011;64076;51.466;7.260;2023-02-28T00:30:10;5.28;;;3.10;;
75499;SDS011;64076;51.466;7.260;2023-02-28T00:32:37;4.45;;;2.90;;
75499;SDS011;64076;51.466;7.260;2023-02-28T00:35:03;3.40;;;2.90;;
75499;SDS011;64076;51.466;7.260;2023-02-28T00:37:29;4.30;;;3.33;;
75499;SDS011;64076;51.466;7.260;2023-02-28T00:39:55;5.03;;;3.17;;
75499;SDS011;64076;51.466;7.260;2023-02-28T00:42:21;4.37;;;2.90;;
75499;SDS011;64076;51.466;7.260;2023-02-28T00:44:46;4.82;;;3.10;;
75499;SDS011;64076;51.466;7.260;2023-02-28T00:47:12;5.23;;;3.13;;
75499;SDS011;64076;51.466;7.260;2023-02-28T00:49:37;4.82;;;3.20;;
75499;SDS011;64076;51.466;7.260;2023-02-28T00:52:03;4.50;;;2.90;;
75499;SDS011;64076;51.466;7.260;2023-02-28T00:54:29;4.30;;;3.27;;
75499;SDS011;64076;51.466;7.260;2023-02-28T00:56:54;4.90;;;3.17;;
75499;SDS011;64076;51.466;7.260;2023-02-28T00:59:20;5.10;;;3.10;;
75499;SDS011;64076;51.466;7.260;2023-02-28T01:01:46;4.95;;;2.90;;
75499;SDS011;64076;51.466;7.260;2023-02-28T01:04:12;4.97;;;2.70;;
75499;SDS011;64076;51.466;7.260;2023-02-28T01:06:39;6.05;;;3.15;;
75499;SDS011;64076;51.466;7.260;2023-02-28T01:09:05;3.97;;;2.83;;
75499;SDS011;64076;51.466;7.260;2023-02-28T01:11:32;4.53;;;3.03;;
75499;SDS011;64076;51.466;7.260;2023-02-28T01:13:58;3.80;;;2.67;;
75499;SDS011;64076;51.466;7.260;2023-02-28T01:16:24;4.40;;;2.88;;
75499;SDS011;64076;51.466;7.260;2023-02-28T01:18:50;6.07;;;3.20;;
75499;SDS011;64076;51.466;7.260;2023-02-28T01:21:16;5.07;;;3.13;;
75499;SDS011;64076;51.466;7.260;2023-02-28T01:23:43;3.42;;;2.78;;
75499;SDS011;64076;51.466;7.260;2023-02-28T01:28:37;5.03;;;2.95;;
75499;SDS011;64076;51.466;7.260;2023-02-28T01:31:03;3.97;;;2.72;;
75499;SDS011;64076;51.466;7.260;2023-02-28T01:33:29;4.28;;;3.10;;
75499;SDS011;64076;51.466;7.260;2023-02-28T01:36:05;4.20;;;3.00;;
75499;SDS011;64076;51.466;7.260;2023-02-28T01:38:31;4.03;;;2.80;;
75499;SDS011;64076;51.466;7.260;2023-02-28T01:40:57;4.10;;;2.70;;
75499;SDS011;64076;51.466;7.260;2023-02-28T01:46:10;3.53;;;2.70;;
75499;SDS011;64076;51.466;7.260;2023-02-28T01:48:37;6.03;;;2.78;;
75499;SDS011;64076;51.466;7.260;2023-02-28T01:51:05;4.28;;;2.90;;
75499;SDS011;64076;51.466;7.260;2023-02-28T01:53:34;4.18;;;3.03;;
75499;SDS011;64076;51.466;7.260;2023-02-28T01:56:03;3.67;;;2.53;;
75499;SDS011;64076;51.466;7.260;2023-02-28T01:58:30;3.67;;;2.50;;
75499;SDS011;64076;51.466;7.260;2023-02-28T02:00:56;4.68;;;2.80;;
75499;SDS011;64076;51.466;7.260;2023-02-28T02:03:22;3.63;;;2.65;;
75499;SDS011;64076;51.466;7.260;2023-02-28T02:05:49;3.78;;;2.60;;
75499;SDS011;64076;51.466;7.260;2023-02-28T02:08:25;4.00;;;3.00;;
75499;SDS011;64076;51.466;7.260;2023-02-28T02:10:52;4.30;;;2.70;;
75499;SDS011;64076;51.466;7.260;2023-02-28T02:16:28;2.70;;;2.25;;
75499;SDS011;64076;51.466;7.260;2023-02-28T02:19:25;4.57;;;2.53;;
75499;SDS011;64076;51.466;7.260;2023-02-28T02:34:58;4.70;;;2.67;;
75499;SDS011;64076;51.466;7.260;2023-02-28T02:40:13;4.28;;;2.95;;
75499;SDS011;64076;51.466;7.260;2023-02-28T02:42:51;3.60;;;2.50;;
75499;SDS011;64076;51.466;7.260;2023-02-28T02:47:49;5.15;;;2.80;;
75499;SDS011;64076;51.466;7.260;2023-02-28T02:50:21;4.60;;;2.40;;
75499;SDS011;64076;51.466;7.260;2023-02-28T02:52:50;3.30;;;2.53;;
75499;SDS011;64076;51.466;7.260;2023-02-28T02:55:17;4.15;;;2.70;;
75499;SDS011;64076;51.466;7.260;2023-02-28T02:57:47;3.58;;;2.67;;
75499;SDS011;64076;51.466;7.260;2023-02-28T03:00:18;2.90;;;2.47;;
75499;SDS011;64076;51.466;7.260;2023-02-28T03:02:46;3.70;;;2.47;;
75499;SDS011;64076;51.466;7.260;2023-02-28T03:05:18;4.20;;;2.65;;
75499;SDS011;64076;51.466;7.260;2023-02-28T03:07:45;4.07;;;2.20;;
75499;SDS011;64076;51.466;7.260;2023-02-28T03:13:26;4.10;;;2.70;;
75499;SDS011;64076;51.466;7.260;2023-02-28T03:18:25;4.50;;;2.95;;
75499;SDS011;64076;51.466;7.260;2023-02-28T03:26:19;3.05;;;2.35;;
75499;SDS011;64076;51.466;7.260;2023-02-28T03:28:50;4.35;;;2.72;;
75499;SDS011;64076;51.466;7.260;2023-02-28T03:31:37;3.35;;;2.50;;
75499;SDS011;64076;51.466;7.260;2023-02-28T03:34:07;3.67;;;2.58;;
75499;SDS011;64076;51.466;7.260;2023-02-28T03:36:38;6.07;;;2.50;;
75499;SDS011;64076;51.466;7.260;2023-02-28T03:39:09;3.60;;;2.60;;
75499;SDS011;64076;51.466;7.260;2023-02-28T03:44:44;4.22;;;2.60;;
75499;SDS011;64076;51.466;7.260;2023-02-28T03:47:10;3.42;;;2.42;;
75499;SDS011;64076;51.466;7.260;2023-02-28T03:49:40;3.07;;;2.40;;
75499;SDS011;64076;51.466;7.260;2023-02-28T03:52:09;4.22;;;2.35;;
75499;SDS011;64076;51.466;7.260;2023-02-28T03:54:36;3.47;;;2.55;;
75499;SDS011;64076;51.466;7.260;2023-02-28T03:59:54;3.33;;;2.47;;
75499;SDS011;64076;51.466;7.260;2023-02-28T04:02:21;4.67;;;2.40;;
75499;SDS011;64076;51.466;7.260;2023-02-28T04:04:47;3.60;;;2.40;;
75499;SDS011;64076;51.466;7.260;2023-02-28T04:07:14;3.50;;;2.30;;
75499;SDS011;64076;51.466;7.260;2023-02-28T04:09:40;4.90;;;2.55;;
75499;SDS011;64076;51.466;7.260;2023-02-28T04:12:06;3.90;;;2.70;;
75499;SDS011;64076;51.466;7.260;2023-02-28T04:14:32;3.60;;;2.50;;
75499;SDS011;64076;51.466;7.260;2023-02-28T04:16:58;3.83;;;2.50;;
75499;SDS011;64076;51.466;7.260;2023-02-28T04:19:23;4.57;;;2.50;;
75499;SDS011;64076;51.466;7.260;2023-02-28T04:21:50;3.77;;;2.27;;
75499;SDS011;64076;51.466;7.260;2023-02-28T04:24:23;4.03;;;2.47;;
75499;SDS011;64076;51.466;7.260;2023-02-28T04:26:50;3.35;;;2.20;;
75499;SDS011;64076;51.466;7.260;2023-02-28T04:29:21;3.47;;;2.50;;
75499;SDS011;64076;51.466;7.260;2023-02-28T04:31:51;3.33;;;2.10;;
75499;SDS011;64076;51.466;7.260;2023-02-28T04:34:18;3.10;;;2.20;;
75499;SDS011;64076;51.466;7.260;2023-02-28T04:36:44;3.58;;;2.10;;
75499;SDS011;64076;51.466;7.260;2023-02-28T04:39:11;4.90;;;2.33;;
75499;SDS011;64076;51.466;7.260;2023-02-28T04:41:36;3.65;;;2.20;;
75499;SDS011;64076;51.466;7.260;2023-02-28T04:44:02;3.77;;;2.73;;
75499;SDS011;64076;51.466;7.260;2023-02-28T04:46:28;3.08;;;2.40;;
75499;SDS011;64076;51.466;7.260;2023-02-28T04:48:55;3.08;;;2.28;;
75499;SDS011;64076;51.466;7.260;2023-02-28T04:51:20;3.50;;;2.20;;
75499;SDS011;64076;51.466;7.260;2023-02-28T04:53:46;3.27;;;2.20;;
75499;SDS011;64076;51.466;7.260;2023-02-28T04:56:13;3.40;;;2.40;;
75499;SDS011;64076;51.466;7.260;2023-02-28T04:58:41;4.45;;;2.42;;
75499;SDS011;64076;51.466;7.260;2023-02-28T05:01:28;3.70;;;2.67;;
75499;SDS011;64076;51.466;7.260;2023-02-28T05:03:53;3.80;;;2.30;;
75499;SDS011;64076;51.466;7.260;2023-02-28T05:06:22;4.68;;;2.58;;
75499;SDS011;64076;51.466;7.260;2023-02-28T05:08:49;4.13;;;2.47;;
75499;SDS011;64076;51.466;7.260;2023-02-28T05:13:40;3.80;;;2.60;;
75499;SDS011;64076;51.466;7.260;2023-02-28T05:16:06;3.35;;;2.47;;
75499;SDS011;64076;51.466;7.260;2023-02-28T05:18:32;4.83;;;2.50;;
75499;SDS011;64076;51.466;7.260;2023-02-28T05:20:58;3.88;;;2.38;;
75499;SDS011;64076;51.466;7.260;2023-02-28T05:23:27;3.53;;;2.30;;
75499;SDS011;64076;51.466;7.260;2023-02-28T05:25:52;3.40;;;2.13;;
75499;SDS011;64076;51.466;7.260;2023-02-28T05:28:19;3.85;;;2.50;;
75499;SDS011;64076;51.466;7.260;2023-02-28T05:30:44;4.10;;;2.47;;
75499;SDS011;64076;51.466;7.260;2023-02-28T05:33:11;4.80;;;2.60;;
75499;SDS011;64076;51.466;7.260;2023-02-28T05:35:41;3.17;;;2.35;;
75499;SDS011;64076;51.466;7.260;2023-02-28T05:38:10;3.95;;;2.30;;
75499;SDS011;64076;51.466;7.260;2023-02-28T05:40:38;3.73;;;2.50;;
75499;SDS011;64076;51.466;7.260;2023-02-28T05:43:05;4.53;;;2.60;;
75499;SDS011;64076;51.466;7.260;2023-02-28T05:45:31;3.30;;;2.33;;
75499;SDS011;64076;51.466;7.260;2023-02-28T05:47:56;4.40;;;2.50;;
75499;SDS011;64076;51.466;7.260;2023-02-28T05:50:22;3.42;;;2.30;;
75499;SDS011;64076;51.466;7.260;2023-02-28T05:52:51;4.10;;;2.83;;
75499;SDS011;64076;51.466;7.260;2023-02-28T05:55:17;3.80;;;2.40;;
75499;SDS011;64076;51.466;7.260;2023-02-28T05:57:43;4.00;;;2.25;;
75499;SDS011;64076;51.466;7.260;2023-02-28T06:00:09;3.03;;;2.30;;
75499;SDS011;64076;51.466;7.260;2023-02-28T06:02:35;3.40;;;2.50;;
75499;SDS011;64076;51.466;7.260;2023-02-28T06:05:01;3.97;;;2.70;;
75499;SDS011;64076;51.466;7.260;2023-02-28T06:07:27;3.27;;;2.53;;
75499;SDS011;64076;51.466;7.260;2023-02-28T06:09:52;4.00;;;2.28;;
75499;SDS011;64076;51.466;7.260;2023-02-28T06:12:18;3.70;;;2.50;;
75499;SDS011;64076;51.466;7.260;2023-02-28T06:14:43;3.77;;;2.17;;
75499;SDS011;64076;51.466;7.260;2023-02-28T06:17:09;3.55;;;2.20;;
75499;SDS011;64076;51.466;7.260;2023-02-28T06:19:36;4.00;;;2.03;;
75499;SDS011;64076;51.466;7.260;2023-02-28T06:22:03;3.35;;;2.20;;
75499;SDS011;64076;51.466;7.260;2023-02-28T06:24:29;4.75;;;2.00;;
75499;SDS011;64076;51.466;7.260;2023-02-28T06:26:56;3.95;;;2.00;;
75499;SDS011;64076;51.466;7.260;2023-02-28T06:29:23;2.53;;;1.85;;
75499;SDS011;64076;51.466;7.260;2023-02-28T06:31:49;4.10;;;2.20;;
75499;SDS011;64076;51.466;7.260;2023-02-28T06:34:15;2.50;;;1.60;;
75499;SDS011;64076;51.466;7.260;2023-02-28T06:36:41;2.65;;;1.73;;
75499;SDS011;64076;51.466;7.260;2023-02-28T06:39:08;4.17;;;1.80;;
75499;SDS011;64076;51.466;7.260;2023-02-28T06:41:34;2.25;;;1.58;;
75499;SDS011;64076;51.466;7.260;2023-02-28T06:44:05;2.20;;;1.55;;
75499;SDS011;64076;51.466;7.260;2023-02-28T06:46:31;2.50;;;1.42;;
75499;SDS011;64076;51.466;7.260;2023-02-28T06:48:57;2.60;;;1.55;;
75499;SDS011;64076;51.466;7.260;2023-02-28T06:51:23;3.13;;;1.73;;
75499;SDS011;64076;51.466;7.260;2023-02-28T06:53:49;2.25;;;1.42;;
75499;SDS011;64076;51.466;7.260;2023-02-28T06:56:15;3.50;;;1.60;;
75499;SDS011;64076;51.466;7.260;2023-02-28T06:58:48;3.00;;;1.47;;
75499;SDS011;64076;51.466;7.260;2023-02-28T07:01:15;2.75;;;1.80;;
75499;SDS011;64076;51.466;7.260;2023-02-28T07:03:42;2.50;;;1.73;;
75499;SDS011;64076;51.466;7.260;2023-02-28T07:06:07;2.75;;;1.50;;
75499;SDS011;64076;51.466;7.260;2023-02-28T07:08:34;2.67;;;1.27;;
75499;SDS011;64076;51.466;7.260;2023-02-28T07:11:00;2.75;;;1.42;;
75499;SDS011;64076;51.466;7.260;2023-02-28T07:13:26;2.97;;;1.65;;
75499;SDS011;64076;51.466;7.260;2023-02-28T07:15:59;2.90;;;1.40;;
75499;SDS011;64076;51.466;7.260;2023-02-28T07:18:26;2.63;;;1.37;;
75499;SDS011;64076;51.466;7.260;2023-02-28T07:20:52;2.72;;;1.60;;
75499;SDS011;64076;51.466;7.260;2023-02-28T07:23:18;2.83;;;1.60;;
75499;SDS011;64076;51.466;7.260;2023-02-28T07:25:44;3.08;;;1.52;;
75499;SDS011;64076;51.466;7.260;2023-02-28T07:28:11;2.83;;;1.70;;
75499;SDS011;64076;51.466;7.260;2023-02-28T07:30:37;3.70;;;1.70;;
75499;SDS011;64076;51.466;7.260;2023-02-28T07:33:02;2.47;;;1.42;;
75499;SDS011;64076;51.466;7.260;2023-02-28T07:35:28;2.65;;;1.60;;
75499;SDS011;64076;51.466;7.260;2023-02-28T07:37:54;2.50;;;1.40;;
75499;SDS011;64076;51.466;7.260;2023-02-28T07:40:22;2.00;;;1.30;;
75499;SDS011;64076;51.466;7.260;2023-02-28T07:42:48;3.10;;;1.60;;
75499;SDS011;64076;51.466;7.260;2023-02-28T07:45:13;2.40;;;1.13;;
75499;SDS011;64076;51.466;7.260;2023-02-28T07:47:39;2.93;;;1.30;;
75499;SDS011;64076;51.466;7.260;2023-02-28T07:50:06;2.75;;;1.40;;
75499;SDS011;64076;51.466;7.260;2023-02-28T07:52:33;1.92;;;1.40;;
75499;SDS011;64076;51.466;7.260;2023-02-28T07:54:59;3.60;;;1.30;;
75499;SDS011;64076;51.466;7.260;2023-02-28T07:57:25;2.42;;;1.42;;
75499;SDS011;64076;51.466;7.260;2023-02-28T07:59:50;2.33;;;1.27;;
75499;SDS011;64076;51.466;7.260;2023-02-28T08:02:16;2.67;;;1.30;;
75499;SDS011;64076;51.466;7.260;2023-02-28T08:04:42;2.45;;;1.40;;
75499;SDS011;64076;51.466;7.260;2023-02-28T08:07:08;2.58;;;1.50;;
75499;SDS011;64076;51.466;7.260;2023-02-28T08:09:38;2.47;;;1.20;;
75499;SDS011;64076;51.466;7.260;2023-02-28T08:12:04;1.70;;;1.20;;
75499;SDS011;64076;51.466;7.260;2023-02-28T08:14:30;1.75;;;1.20;;
75499;SDS011;64076;51.466;7.260;2023-02-28T08:16:55;2.40;;;1.30;;
75499;SDS011;64076;51.466;7.260;2023-02-28T08:19:21;2.35;;;1.15;;
75499;SDS011;64076;51.466;7.260;2023-02-28T08:21:47;2.23;;;1.20;;
75499;SDS011;64076;51.466;7.260;2023-02-28T08:24:12;2.03;;;1.23;;
75499;SDS011;64076;51.466;7.260;2023-02-28T08:26:38;2.17;;;1.20;;
75499;SDS011;64076;51.466;7.260;2023-02-28T08:29:03;2.37;;;1.27;;
75499;SDS011;64076;51.466;7.260;2023-02-28T08:31:29;1.95;;;1.10;;
75499;SDS011;64076;51.466;7.260;2023-02-28T08:33:54;1.80;;;1.10;;
75499;SDS011;64076;51.466;7.260;2023-02-28T08:36:23;1.80;;;1.00;;
75499;SDS011;64076;51.466;7.260;2023-02-28T08:38:50;2.63;;;1.40;;
75499;SDS011;64076;51.466;7.260;2023-02-28T08:41:19;1.88;;;1.17;;
75499;SDS011;64076;51.466;7.260;2023-02-28T08:43:44;2.45;;;1.20;;
75499;SDS011;64076;51.466;7.260;2023-02-28T08:46:11;1.80;;;1.10;;
75499;SDS011;64076;51.466;7.260;2023-02-28T08:48:38;1.70;;;1.20;;
75499;SDS011;64076;51.466;7.260;2023-02-28T08:51:08;1.90;;;1.40;;
75499;SDS011;64076;51.466;7.260;2023-02-28T08:53:36;3.35;;;1.45;;
75499;SDS011;64076;51.466;7.260;2023-02-28T08:56:04;2.07;;;1.30;;
75499;SDS011;64076;51.466;7.260;2023-02-28T08:58:31;2.03;;;1.27;;
75499;SDS011;64076;51.466;7.260;2023-02-28T09:00:59;2.33;;;1.40;;
75499;SDS011;64076;51.466;7.260;2023-02-28T09:03:25;2.83;;;1.70;;
75499;SDS011;64076;51.466;7.260;2023-02-28T09:05:53;2.25;;;1.20;;
75499;SDS011;64076;51.466;7.260;2023-02-28T09:08:20;2.10;;;1.40;;
75499;SDS011;64076;51.466;7.260;2023-02-28T09:10:45;2.00;;;1.33;;
75499;SDS011;64076;51.466;7.260;2023-02-28T09:13:11;2.17;;;1.37;;
75499;SDS011;64076;51.466;7.260;2023-02-28T09:15:37;3.43;;;1.60;;
75499;SDS011;64076;51.466;7.260;2023-02-28T09:18:03;2.72;;;1.40;;
75499;SDS011;64076;51.466;7.260;2023-02-28T09:20:28;2.72;;;1.40;;
75499;SDS011;64076;51.466;7.260;2023-02-28T09:22:54;1.90;;;1.30;;
75499;SDS011;64076;51.466;7.260;2023-02-28T09:25:23;2.10;;;1.38;;
75499;SDS011;64076;51.466;7.260;2023-02-28T09:27:48;2.63;;;1.73;;
75499;SDS011;64076;51.466;7.260;2023-02-28T09:30:14;2.45;;;1.63;;
75499;SDS011;64076;51.466;7.260;2023-02-28T09:32:40;2.40;;;1.20;;
75499;SDS011;64076;51.466;7.260;2023-02-28T09:35:05;3.80;;;1.30;;
75499;SDS011;64076;51.466;7.260;2023-02-28T09:37:31;2.67;;;1.50;;
75499;SDS011;64076;51.466;7.260;2023-02-28T09:39:57;2.28;;;1.35;;
75499;SDS011;64076;51.466;7.260;2023-02-28T09:42:32;2.00;;;1.20;;
75499;SDS011;64076;51.466;7.260;2023-02-28T09:45:00;2.13;;;1.30;;
75499;SDS011;64076;51.466;7.260;2023-02-28T09:47:31;2.55;;;1.38;;
75499;SDS011;64076;51.466;7.260;2023-02-28T09:50:48;1.80;;;1.40;;
75499;SDS011;64076;51.466;7.260;2023-02-28T09:53:13;1.80;;;1.17;;
75499;SDS011;64076;51.466;7.260;2023-02-28T09:55:50;3.13;;;1.23;;
75499;SDS011;64076;51.466;7.260;2023-02-28T10:00:50;1.75;;;1.20;;
75499;SDS011;64076;51.466;7.260;2023-02-28T10:03:30;1.75;;;1.20;;
75499;SDS011;64076;51.466;7.260;2023-02-28T10:11:40;2.53;;;1.20;;
75499;SDS011;64076;51.466;7.260;2023-02-28T10:14:15;1.70;;;1.02;;
75499;SDS011;64076;51.466;7.260;2023-02-28T10:16:45;2.00;;;1.15;;
75499;SDS011;64076;51.466;7.260;2023-02-28T10:19:22;1.73;;;1.00;;
75499;SDS011;64076;51.466;7.260;2023-02-28T10:22:14;1.88;;;0.85;;
75499;SDS011;64076;51.466;7.260;2023-02-28T10:24:52;2.35;;;1.17;;
75499;SDS011;64076;51.466;7.260;2023-02-28T10:27:20;2.35;;;1.05;;
75499;SDS011;64076;51.466;7.260;2023-02-28T10:29:50;2.53;;;1.00;;
75499;SDS011;64076;51.466;7.260;2023-02-28T10:32:22;3.73;;;1.10;;
75499;SDS011;64076;51.466;7.260;2023-02-28T10:35:06;2.88;;;1.10;;
75499;SDS011;64076;51.466;7.260;2023-02-28T10:37:44;2.83;;;1.33;;
75499;SDS011;64076;51.466;7.260;2023-02-28T10:42:46;4.15;;;1.70;;
75499;SDS011;64076;51.466;7.260;2023-02-28T10:45:24;3.77;;;1.20;;
75499;SDS011;64076;51.466;7.260;2023-02-28T10:47:53;4.78;;;1.60;;
75499;SDS011;64076;51.466;7.260;2023-02-28T10:50:29;4.35;;;1.65;;
75499;SDS011;64076;51.466;7.260;2023-02-28T10:53:00;3.40;;;1.30;;
75499;SDS011;64076;51.466;7.260;2023-02-28T10:55:33;2.58;;;1.15;;
75499;SDS011;64076;51.466;7.260;2023-02-28T10:57:59;2.83;;;1.20;;
75499;SDS011;64076;51.466;7.260;2023-02-28T11:00:25;3.77;;;1.10;;
75499;SDS011;64076;51.466;7.260;2023-02-28T11:02:56;2.78;;;1.20;;
75499;SDS011;64076;51.466;7.260;2023-02-28T11:05:24;2.25;;;1.30;;
75499;SDS011;64076;51.466;7.260;2023-02-28T11:07:53;2.25;;;1.00;;
75499;SDS011;64076;51.466;7.260;2023-02-28T11:10:37;2.47;;;0.97;;
75499;SDS011;64076;51.466;7.260;2023-02-28T11:13:03;2.58;;;1.27;;
75499;SDS011;64076;51.466;7.260;2023-02-28T11:15:32;1.60;;;0.80;;
75499;SDS011;64076;51.466;7.260;2023-02-28T11:20:47;2.08;;;1.00;;
75499;SDS011;64076;51.466;7.260;2023-02-28T11:23:16;2.03;;;0.80;;
75499;SDS011;64076;51.466;7.260;2023-02-28T11:25:54;2.03;;;1.00;;
75499;SDS011;64076;51.466;7.260;2023-02-28T11:28:24;1.85;;;1.05;;
75499;SDS011;64076;51.466;7.260;2023-02-28T11:33:42;2.00;;;0.98;;
75499;SDS011;64076;51.466;7.260;2023-02-28T11:36:18;1.70;;;0.80;;
75499;SDS011;64076;51.466;7.260;2023-02-28T11:38:52;2.33;;;1.00;;
75499;SDS011;64076;51.466;7.260;2023-02-28T11:41:32;2.67;;;1.10;;
75499;SDS011;64076;51.466;7.260;2023-02-28T11:48:11;1.88;;;0.90;;
75499;SDS011;64076;51.466;7.260;2023-02-28T11:50:22;1.80;;;0.83;;
75499;SDS011;64076;51.466;7.260;2023-02-28T11:53:31;1.67;;;0.90;;
75499;SDS011;64076;51.466;7.260;2023-02-28T11:56:31;1.88;;;1.08;;
75499;SDS011;64076;51.466;7.260;2023-02-28T12:02:18;1.48;;;0.60;;
75499;SDS011;64076;51.466;7.260;2023-02-28T12:10:36;1.67;;;0.80;;
75499;SDS011;64076;51.466;7.260;2023-02-28T12:21:25;2.05;;;1.00;;
75499;SDS011;64076;51.466;7.260;2023-02-28T12:24:00;1.52;;;0.70;;
75499;SDS011;64076;51.466;7.260;2023-02-28T12:26:44;2.03;;;1.00;;
75499;SDS011;64076;51.466;7.260;2023-02-28T12:31:49;1.77;;;0.90;;
75499;SDS011;64076;51.466;7.260;2023-02-28T12:34:19;2.15;;;0.90;;
75499;SDS011;64076;51.466;7.260;2023-02-28T12:36:48;3.22;;;0.90;;
75499;SDS011;64076;51.466;7.260;2023-02-28T12:39:25;1.27;;;0.90;;
75499;SDS011;64076;51.466;7.260;2023-02-28T12:41:54;2.58;;;1.10;;
75499;SDS011;64076;51.466;7.260;2023-02-28T12:44:44;2.17;;;1.10;;
75499;SDS011;64076;51.466;7.260;2023-02-28T12:47:15;1.92;;;1.00;;
75499;SDS011;64076;51.466;7.260;2023-02-28T12:50:05;2.20;;;0.90;;
75499;SDS011;64076;51.466;7.260;2023-02-28T12:52:48;2.05;;;0.98;;
75499;SDS011;64076;51.466;7.260;2023-02-28T12:58:13;1.43;;;1.00;;
75499;SDS011;64076;51.466;7.260;2023-02-28T13:00:49;1.80;;;1.05;;
75499;SDS011;64076;51.466;7.260;2023-02-28T13:03:34;2.35;;;1.10;;
75499;SDS011;64076;51.466;7.260;2023-02-28T13:06:08;1.75;;;0.90;;
75499;SDS011;64076;51.466;7.260;2023-02-28T13:11:41;1.80;;;1.10;;
75499;SDS011;64076;51.466;7.260;2023-02-28T13:16:56;1.40;;;1.00;;
75499;SDS011;64076;51.466;7.260;2023-02-28T13:19:26;1.60;;;0.95;;
75499;SDS011;64076;51.466;7.260;2023-02-28T13:21:54;2.13;;;1.08;;
75499;SDS011;64076;51.466;7.260;2023-02-28T13:27:20;2.63;;;1.10;;
75499;SDS011;64076;51.466;7.260;2023-02-28T13:29:50;1.60;;;1.42;;
75499;SDS011;64076;51.466;7.260;2023-02-28T13:32:27;1.40;;;0.90;;
75499;SDS011;64076;51.466;7.260;2023-02-28T14:06:54;3.05;;;1.17;;
75499;SDS011;64076;51.466;7.260;2023-02-28T14:11:50;2.05;;;1.20;;
75499;SDS011;64076;51.466;7.260;2023-02-28T14:17:03;2.58;;;1.00;;
75499;SDS011;64076;51.466;7.260;2023-02-28T14:19:31;1.60;;;1.05;;
75499;SDS011;64076;51.466;7.260;2023-02-28T14:24:59;1.85;;;1.20;;
75499;SDS011;64076;51.466;7.260;2023-02-28T14:38:43;1.67;;;1.17;;
75499;SDS011;64076;51.466;7.260;2023-02-28T14:44:13;1.98;;;1.00;;
75499;SDS011;64076;51.466;7.260;2023-02-28T14:46:40;2.00;;;1.10;;
75499;SDS011;64076;51.466;7.260;2023-02-28T14:49:06;1.67;;;0.93;;
75499;SDS011;64076;51.466;7.260;2023-02-28T14:51:38;2.70;;;1.45;;
75499;SDS011;64076;51.466;7.260;2023-02-28T14:54:04;2.03;;;1.10;;
75499;SDS011;64076;51.466;7.260;2023-02-28T14:56:34;1.88;;;1.00;;
75499;SDS011;64076;51.466;7.260;2023-02-28T14:59:01;1.40;;;1.00;;
75499;SDS011;64076;51.466;7.260;2023-02-28T15:01:27;2.20;;;1.23;;
75499;SDS011;64076;51.466;7.260;2023-02-28T15:04:00;1.60;;;0.90;;
75499;SDS011;64076;51.466;7.260;2023-02-28T15:06:27;1.47;;;1.03;;
75499;SDS011;64076;51.466;7.260;2023-02-28T15:09:06;1.77;;;1.20;;
75499;SDS011;64076;51.466;7.260;2023-02-28T15:11:33;2.13;;;1.10;;
75499;SDS011;64076;51.466;7.260;2023-02-28T15:13:59;1.80;;;1.20;;
75499;SDS011;64076;51.466;7.260;2023-02-28T15:16:30;1.80;;;1.10;;
75499;SDS011;64076;51.466;7.260;2023-02-28T15:18:59;1.80;;;1.20;;
75499;SDS011;64076;51.466;7.260;2023-02-28T15:21:26;1.67;;;1.10;;
75499;SDS011;64076;51.466;7.260;2023-02-28T15:24:16;2.15;;;1.40;;
75499;SDS011;64076;51.466;7.260;2023-02-28T15:26:49;1.85;;;1.30;;
75499;SDS011;64076;51.466;7.260;2023-02-28T15:29:23;1.70;;;1.27;;
75499;SDS011;64076;51.466;7.260;2023-02-28T15:31:50;1.50;;;1.10;;
75499;SDS011;64076;51.466;7.260;2023-02-28T15:34:35;1.70;;;1.15;;
75499;SDS011;64076;51.466;7.260;2023-02-28T15:37:01;1.77;;;1.15;;
75499;SDS011;64076;51.466;7.260;2023-02-28T15:39:28;1.98;;;1.20;;
75499;SDS011;64076;51.466;7.260;2023-02-28T15:44:56;2.33;;;0.97;;
75499;SDS011;64076;51.466;7.260;2023-02-28T15:47:23;1.60;;;1.20;;
75499;SDS011;64076;51.466;7.260;2023-02-28T15:49:51;2.47;;;1.00;;
75499;SDS011;64076;51.466;7.260;2023-02-28T15:52:40;1.83;;;1.30;;
75499;SDS011;64076;51.466;7.260;2023-02-28T15:55:09;2.00;;;1.30;;
75499;SDS011;64076;51.466;7.260;2023-02-28T15:57:39;1.83;;;1.13;;
75499;SDS011;64076;51.466;7.260;2023-02-28T16:00:06;1.65;;;1.00;;
75499;SDS011;64076;51.466;7.260;2023-02-28T16:02:37;2.08;;;1.20;;
75499;SDS011;64076;51.466;7.260;2023-02-28T16:07:39;1.73;;;1.30;;
75499;SDS011;64076;51.466;7.260;2023-02-28T16:10:05;1.87;;;1.30;;
75499;SDS011;64076;51.466;7.260;2023-02-28T16:12:33;2.00;;;1.20;;
75499;SDS011;64076;51.466;7.260;2023-02-28T16:15:01;1.70;;;1.38;;
75499;SDS011;64076;51.466;7.260;2023-02-28T16:17:38;2.13;;;1.02;;
75499;SDS011;64076;51.466;7.260;2023-02-28T16:20:14;1.70;;;1.25;;
75499;SDS011;64076;51.466;7.260;2023-02-28T16:22:41;2.10;;;1.20;;
75499;SDS011;64076;51.466;7.260;2023-02-28T16:25:08;1.40;;;0.90;;
75499;SDS011;64076;51.466;7.260;2023-02-28T16:27:35;2.53;;;1.27;;
75499;SDS011;64076;51.466;7.260;2023-02-28T16:30:02;1.85;;;1.17;;
75499;SDS011;64076;51.466;7.260;2023-02-28T16:32:29;1.88;;;1.20;;
75499;SDS011;64076;51.466;7.260;2023-02-28T16:34:55;1.77;;;1.17;;
75499;SDS011;64076;51.466;7.260;2023-02-28T16:37:21;1.67;;;1.10;;
75499;SDS011;64076;51.466;7.260;2023-02-28T16:39:46;2.03;;;1.20;;
75499;SDS011;64076;51.466;7.260;2023-02-28T16:42:26;2.00;;;1.23;;
75499;SDS011;64076;51.466;7.260;2023-02-28T16:44:54;1.90;;;1.00;;
75499;SDS011;64076;51.466;7.260;2023-02-28T16:47:21;2.30;;;1.30;;
75499;SDS011;64076;51.466;7.260;2023-02-28T16:49:47;1.70;;;1.02;;
75499;SDS011;64076;51.466;7.260;2023-02-28T16:52:13;2.15;;;1.23;;
75499;SDS011;64076;51.466;7.260;2023-02-28T16:54:40;2.00;;;1.30;;
75499;SDS011;64076;51.466;7.260;2023-02-28T16:57:08;2.00;;;1.00;;
75499;SDS011;64076;51.466;7.260;2023-02-28T16:59:39;1.75;;;1.15;;
75499;SDS011;64076;51.466;7.260;2023-02-28T17:02:09;1.65;;;1.08;;
75499;SDS011;64076;51.466;7.260;2023-02-28T17:04:36;1.70;;;1.08;;
75499;SDS011;64076;51.466;7.260;2023-02-28T17:07:02;2.20;;;1.20;;
75499;SDS011;64076;51.466;7.260;2023-02-28T17:09:28;1.70;;;1.08;;
75499;SDS011;64076;51.466;7.260;2023-02-28T17:11:54;2.30;;;1.10;;
75499;SDS011;64076;51.466;7.260;2023-02-28T17:14:21;1.67;;;0.90;;
75499;SDS011;64076;51.466;7.260;2023-02-28T17:16:48;1.90;;;1.10;;
75499;SDS011;64076;51.466;7.260;2023-02-28T17:19:15;1.70;;;1.10;;
75499;SDS011;64076;51.466;7.260;2023-02-28T17:21:42;1.52;;;1.00;;
75499;SDS011;64076;51.466;7.260;2023-02-28T17:24:08;1.60;;;1.10;;
75499;SDS011;64076;51.466;7.260;2023-02-28T17:26:36;2.13;;;1.10;;
75499;SDS011;64076;51.466;7.260;2023-02-28T17:29:02;2.07;;;1.20;;
75499;SDS011;64076;51.466;7.260;2023-02-28T17:31:28;2.45;;;1.33;;
75499;SDS011;64076;51.466;7.260;2023-02-28T17:33:56;2.42;;;1.30;;
75499;SDS011;64076;51.466;7.260;2023-02-28T17:36:24;2.47;;;1.30;;